sensor_id;sensor_type;location;lat;lon;timestamp;pressure;altitude;pressure_sealevel;temperature;humidity
18819;BME280;9537;45.594;9.294;2023-02-05T00:00:35;101011.47;;;10.11;53.56
18819;BME280;9537;45.594;9.294;2023-02-05T00:01:37;101014.09;;;10.11;53.49
18819;BME280;9537;45.594;9.294;2023-02-05T00:02:40;101012.72;;;10.07;53.40
18819;BME280;9537;45.594;9.294;2023-02-05T00:03:41;101014.50;;;10.07;53.50
18819;BME280;9537;45.594;9.294;2023-02-05T00:04:43;101013.56;;;10.08;53.47
18819;BME280;9537;45.594;9.294;2023-02-05T00:05:44;101017.31;;;10.05;53.31
18819;BME280;9537;45.594;9.294;2023-02-05T00:06:46;101026.88;;;10.06;53.22
18819;BME280;9537;45.594;9.294;2023-02-05T00:07:47;101018.00;;;10.07;52.97
18819;BME280;9537;45.594;9.294;2023-02-05T00:08:49;101024.22;;;10.06;52.90
18819;BME280;9537;45.594;9.294;2023-02-05T00:09:51;101018.84;;;10.08;52.76
18819;BME280;9537;45.594;9.294;2023-02-05T00:10:54;101011.75;;;10.08;52.61
18819;BME280;9537;45.594;9.294;2023-02-05T00:11:57;101023.13;;;10.09;52.18
18819;BME280;9537;45.594;9.294;2023-02-05T00:12:59;101020.78;;;10.06;51.99
18819;BME280;9537;45.594;9.294;2023-02-05T00:14:01;101023.69;;;10.03;51.83
18819;BME280;9537;45.594;9.294;2023-02-05T00:15:02;101020.22;;;10.02;52.12
18819;BME280;9537;45.594;9.294;2023-02-05T00:16:07;101018.69;;;10.00;51.93
18819;BME280;9537;45.594;9.294;2023-02-05T00:17:08;101021.16;;;10.01;51.68
18819;BME280;9537;45.594;9.294;2023-02-05T00:18:10;101024.94;;;9.99;51.44
18819;BME280;9537;45.594;9.294;2023-02-05T00:19:12;101020.59;;;9.98;51.75
18819;BME280;9537;45.594;9.294;2023-02-05T00:20:13;101017.69;;;10.01;51.40
18819;BME280;9537;45.594;9.294;2023-02-05T00:21:16;101026.31;;;9.93;51.28
18819;BME280;9537;45.594;9.294;2023-02-05T00:22:18;101024.78;;;9.90;51.61
18819;BME280;9537;45.594;9.294;2023-02-05T00:23:19;101023.09;;;9.89;51.76
18819;BME280;9537;45.594;9.294;2023-02-05T00:24:21;101031.97;;;9.88;51.83
18819;BME280;9537;45.594;9.294;2023-02-05T00:25:24;101030.59;;;9.94;51.40
18819;BME280;9537;45.594;9.294;2023-02-05T00:26:26;101025.59;;;9.91;51.50
18819;BME280;9537;45.594;9.294;2023-02-05T00:27:27;101023.91;;;9.90;51.58
18819;BME280;9537;45.594;9.294;2023-02-05T00:28:30;101027.69;;;9.87;50.97
18819;BME280;9537;45.594;9.294;2023-02-05T00:29:31;101026.97;;;9.85;50.94
18819;BME280;9537;45.594;9.294;2023-02-05T00:30:33;101025.03;;;9.87;50.76
18819;BME280;9537;45.594;9.294;2023-02-05T00:31:34;101023.34;;;9.86;51.06
18819;BME280;9537;45.594;9.294;2023-02-05T00:32:36;101025.72;;;9.89;50.92
18819;BME280;9537;45.594;9.294;2023-02-05T00:33:37;101026.69;;;9.88;50.79
18819;BME280;9537;45.594;9.294;2023-02-05T00:34:39;101026.81;;;9.87;50.58
18819;BME280;9537;45.594;9.294;2023-02-05T00:35:42;101023.63;;;9.83;50.71
18819;BME280;9537;45.594;9.294;2023-02-05T00:36:43;101025.56;;;9.81;51.33
18819;BME280;9537;45.594;9.294;2023-02-05T00:37:44;101023.19;;;9.78;51.05
18819;BME280;9537;45.594;9.294;2023-02-05T00:38:47;101018.88;;;9.77;51.19
18819;BME280;9537;45.594;9.294;2023-02-05T00:39:49;101028.34;;;9.80;50.93
18819;BME280;9537;45.594;9.294;2023-02-05T00:40:51;101029.56;;;9.76;51.17
18819;BME280;9537;45.594;9.294;2023-02-05T00:41:53;101022.63;;;9.75;51.05
18819;BME280;9537;45.594;9.294;2023-02-05T00:42:54;101021.53;;;9.77;50.75
18819;BME280;9537;45.594;9.294;2023-02-05T00:43:56;101024.06;;;9.79;50.65
18819;BME280;9537;45.594;9.294;2023-02-05T00:44:57;101023.34;;;9.77;50.86
18819;BME280;9537;45.594;9.294;2023-02-05T00:46:00;101021.09;;;9.72;50.99
18819;BME280;9537;45.594;9.294;2023-02-05T00:47:04;101023.88;;;9.70;50.38
18819;BME280;9537;45.594;9.294;2023-02-05T00:48:06;101016.09;;;9.69;50.31
18819;BME280;9537;45.594;9.294;2023-02-05T00:49:07;101019.97;;;9.65;50.47
18819;BME280;9537;45.594;9.294;2023-02-05T00:50:09;101025.38;;;9.63;50.80
18819;BME280;9537;45.594;9.294;2023-02-05T00:51:10;101020.41;;;9.70;49.86
18819;BME280;9537;45.594;9.294;2023-02-05T00:52:12;101025.69;;;9.70;50.11
18819;BME280;9537;45.594;9.294;2023-02-05T00:53:13;101020.66;;;9.67;49.56
18819;BME280;9537;45.594;9.294;2023-02-05T00:54:15;101027.72;;;9.66;49.60
18819;BME280;9537;45.594;9.294;2023-02-05T00:55:17;101025.25;;;9.65;49.39
18819;BME280;9537;45.594;9.294;2023-02-05T00:56:20;101020.50;;;9.59;49.72
18819;BME280;9537;45.594;9.294;2023-02-05T00:57:21;101023.16;;;9.59;49.74
18819;BME280;9537;45.594;9.294;2023-02-05T00:58:24;101028.72;;;9.65;49.65
18819;BME280;9537;45.594;9.294;2023-02-05T00:59:25;101028.84;;;9.64;49.56
18819;BME280;9537;45.594;9.294;2023-02-05T01:00:27;101024.66;;;9.61;49.63
18819;BME280;9537;45.594;9.294;2023-02-05T01:01:28;101029.25;;;9.59;49.17
18819;BME280;9537;45.594;9.294;2023-02-05T01:02:30;101023.97;;;9.59;49.79
18819;BME280;9537;45.594;9.294;2023-02-05T01:03:32;101027.56;;;9.58;49.33
18819;BME280;9537;45.594;9.294;2023-02-05T01:04:33;101024.66;;;9.61;49.51
18819;BME280;9537;45.594;9.294;2023-02-05T01:05:37;101023.81;;;9.61;48.95
18819;BME280;9537;45.594;9.294;2023-02-05T01:06:38;101026.72;;;9.58;49.28
18819;BME280;9537;45.594;9.294;2023-02-05T01:07:40;101027.00;;;9.55;49.10
18819;BME280;9537;45.594;9.294;2023-02-05T01:08:41;101030.19;;;9.58;48.66
18819;BME280;9537;45.594;9.294;2023-02-05T01:09:43;101028.41;;;9.59;48.85
18819;BME280;9537;45.594;9.294;2023-02-05T01:10:46;101029.81;;;9.63;48.19
18819;BME280;9537;45.594;9.294;2023-02-05T01:11:50;101031.75;;;9.61;48.53
18819;BME280;9537;45.594;9.294;2023-02-05T01:12:51;101037.16;;;9.59;48.70
18819;BME280;9537;45.594;9.294;2023-02-05T01:13:53;101039.47;;;9.53;49.05
18819;BME280;9537;45.594;9.294;2023-02-05T01:14:54;101044.34;;;9.47;48.89
18819;BME280;9537;45.594;9.294;2023-02-05T01:15:57;101043.34;;;9.48;49.26
18819;BME280;9537;45.594;9.294;2023-02-05T01:16:57;101046.09;;;9.47;48.81
18819;BME280;9537;45.594;9.294;2023-02-05T01:18:00;101040.16;;;9.45;49.13
18819;BME280;9537;45.594;9.294;2023-02-05T01:19:01;101037.91;;;9.40;49.69
18819;BME280;9537;45.594;9.294;2023-02-05T01:20:04;101040.53;;;9.40;49.89
18819;BME280;9537;45.594;9.294;2023-02-05T01:21:05;101044.41;;;9.36;49.95
18819;BME280;9537;45.594;9.294;2023-02-05T01:22:07;101041.19;;;9.33;49.77
18819;BME280;9537;45.594;9.294;2023-02-05T01:23:09;101046.88;;;9.28;50.10
18819;BME280;9537;45.594;9.294;2023-02-05T01:24:11;101049.75;;;9.25;50.33
18819;BME280;9537;45.594;9.294;2023-02-05T01:25:12;101054.47;;;9.21;50.54
18819;BME280;9537;45.594;9.294;2023-02-05T01:26:14;101056.50;;;9.18;50.04
18819;BME280;9537;45.594;9.294;2023-02-05T01:27:17;101052.78;;;9.20;50.15
18819;BME280;9537;45.594;9.294;2023-02-05T01:28:19;101047.50;;;9.20;50.18
18819;BME280;9537;45.594;9.294;2023-02-05T01:29:20;101057.78;;;9.23;49.70
18819;BME280;9537;45.594;9.294;2023-02-05T01:30:22;101058.63;;;9.24;50.57
18819;BME280;9537;45.594;9.294;2023-02-05T01:31:23;101071.13;;;9.22;50.31
18819;BME280;9537;45.594;9.294;2023-02-05T01:32:28;101063.06;;;9.23;50.38
18819;BME280;9537;45.594;9.294;2023-02-05T01:33:29;101062.94;;;9.25;49.58
18819;BME280;9537;45.594;9.294;2023-02-05T01:34:31;101056.84;;;9.24;49.26
18819;BME280;9537;45.594;9.294;2023-02-05T01:35:32;101059.47;;;9.24;49.27
18819;BME280;9537;45.594;9.294;2023-02-05T01:36:34;101066.78;;;9.21;49.29
18819;BME280;9537;45.594;9.294;2023-02-05T01:37:35;101061.50;;;9.21;49.84
18819;BME280;9537;45.594;9.294;2023-02-05T01:38:37;101060.56;;;9.22;49.07
18819;BME280;9537;45.594;9.294;2023-02-05T01:39:38;101059.47;;;9.24;49.13
18819;BME280;9537;45.594;9.294;2023-02-05T01:40:40;101060.31;;;9.25;49.27
18819;BME280;9537;45.594;9.294;2023-02-05T01:41:42;101062.22;;;9.23;48.84
18819;BME280;9537;45.594;9.294;2023-02-05T01:42:47;101069.44;;;9.21;49.51
18819;BME280;9537;45.594;9.294;2023-02-05T01:44:05;101067.31;;;9.15;49.19
18819;BME280;9537;45.594;9.294;2023-02-05T01:46:43;101078.31;;;9.20;49.04
18819;BME280;9537;45.594;9.294;2023-02-05T01:47:46;101075.94;;;9.17;49.15
18819;BME280;9537;45.594;9.294;2023-02-05T01:48:50;101081.06;;;9.18;48.95
18819;BME280;9537;45.594;9.294;2023-02-05T01:49:56;101074.97;;;9.18;49.22
18819;BME280;9537;45.594;9.294;2023-02-05T01:51:00;101076.91;;;9.16;49.54
18819;BME280;9537;45.594;9.294;2023-02-05T01:52:08;101074.28;;;9.16;49.10
18819;BME280;9537;45.594;9.294;2023-02-05T01:53:15;101071.75;;;9.14;48.82
18819;BME280;9537;45.594;9.294;2023-02-05T01:54:20;101080.50;;;9.15;49.04
18819;BME280;9537;45.594;9.294;2023-02-05T01:55:23;101076.03;;;9.15;49.45
18819;BME280;9537;45.594;9.294;2023-02-05T01:56:29;101074.28;;;9.16;49.16
18819;BME280;9537;45.594;9.294;2023-02-05T01:57:32;101077.03;;;9.14;49.41
18819;BME280;9537;45.594;9.294;2023-02-05T01:58:39;101072.84;;;9.12;49.39
18819;BME280;9537;45.594;9.294;2023-02-05T01:59:44;101075.63;;;9.10;49.45
18819;BME280;9537;45.594;9.294;2023-02-05T02:00:45;101082.09;;;9.06;49.63
18819;BME280;9537;45.594;9.294;2023-02-05T02:01:49;101081.16;;;9.07;49.68
18819;BME280;9537;45.594;9.294;2023-02-05T02:02:50;101076.00;;;9.06;49.22
18819;BME280;9537;45.594;9.294;2023-02-05T02:03:54;101080.44;;;9.05;48.70
18819;BME280;9537;45.594;9.294;2023-02-05T02:05:02;101080.53;;;9.03;49.62
18819;BME280;9537;45.594;9.294;2023-02-05T02:06:06;101083.19;;;9.03;49.23
18819;BME280;9537;45.594;9.294;2023-02-05T02:07:10;101083.19;;;9.03;49.47
18819;BME280;9537;45.594;9.294;2023-02-05T02:08:12;101079.88;;;9.01;49.14
18819;BME280;9537;45.594;9.294;2023-02-05T02:09:14;101075.06;;;8.95;49.04
18819;BME280;9537;45.594;9.294;2023-02-05T02:10:17;101086.47;;;8.96;49.16
18819;BME280;9537;45.594;9.294;2023-02-05T02:11:20;101079.41;;;8.96;49.57
18819;BME280;9537;45.594;9.294;2023-02-05T02:12:26;101076.88;;;8.95;49.07
18819;BME280;9537;45.594;9.294;2023-02-05T02:13:30;101073.56;;;8.93;49.67
18819;BME280;9537;45.594;9.294;2023-02-05T02:14:36;101076.41;;;8.90;49.85
18819;BME280;9537;45.594;9.294;2023-02-05T02:15:39;101076.41;;;8.90;49.29
18819;BME280;9537;45.594;9.294;2023-02-05T02:16:42;101077.28;;;8.90;48.89
18819;BME280;9537;45.594;9.294;2023-02-05T02:17:45;101080.84;;;8.89;49.14
18819;BME280;9537;45.594;9.294;2023-02-05T02:18:48;101072.94;;;8.89;49.28
18819;BME280;9537;45.594;9.294;2023-02-05T02:19:53;101068.66;;;8.88;49.53
18819;BME280;9537;45.594;9.294;2023-02-05T02:21:26;101070.47;;;8.88;49.37
18819;BME280;9537;45.594;9.294;2023-02-05T02:22:42;101073.78;;;8.90;49.25
18819;BME280;9537;45.594;9.294;2023-02-05T02:24:07;101066.13;;;8.87;49.38
18819;BME280;9537;45.594;9.294;2023-02-05T02:25:24;101073.22;;;8.86;49.02
18819;BME280;9537;45.594;9.294;2023-02-05T02:26:47;101074.19;;;8.85;48.95
18819;BME280;9537;45.594;9.294;2023-02-05T02:27:56;101072.50;;;8.84;49.49
18819;BME280;9537;45.594;9.294;2023-02-05T02:29:01;101076.94;;;8.84;49.39
18819;BME280;9537;45.594;9.294;2023-02-05T02:30:08;101074.44;;;8.82;49.63
18819;BME280;9537;45.594;9.294;2023-02-05T02:31:12;101068.19;;;8.83;49.04
18819;BME280;9537;45.594;9.294;2023-02-05T02:32:20;101076.94;;;8.84;49.59
18819;BME280;9537;45.594;9.294;2023-02-05T02:33:28;101075.28;;;8.83;49.05
18819;BME280;9537;45.594;9.294;2023-02-05T02:34:38;101074.19;;;8.85;49.31
18819;BME280;9537;45.594;9.294;2023-02-05T02:35:43;101073.47;;;8.83;49.16
18819;BME280;9537;45.594;9.294;2023-02-05T02:36:51;101081.63;;;8.80;49.35
18819;BME280;9537;45.594;9.294;2023-02-05T02:37:59;101077.34;;;8.79;49.46
18819;BME280;9537;45.594;9.294;2023-02-05T02:39:08;101079.25;;;8.77;49.20
18819;BME280;9537;45.594;9.294;2023-02-05T02:40:14;101078.66;;;8.73;49.72
18819;BME280;9537;45.594;9.294;2023-02-05T02:41:23;101078.78;;;8.72;49.90
18819;BME280;9537;45.594;9.294;2023-02-05T02:42:30;101084.88;;;8.72;50.09
18819;BME280;9537;45.594;9.294;2023-02-05T02:43:40;101075.31;;;8.71;49.64
18819;BME280;9537;45.594;9.294;2023-02-05T02:44:48;101076.16;;;8.72;49.77
18819;BME280;9537;45.594;9.294;2023-02-05T02:45:57;101072.56;;;8.73;49.53
18819;BME280;9537;45.594;9.294;2023-02-05T02:47:05;101070.06;;;8.71;49.71
18819;BME280;9537;45.594;9.294;2023-02-05T02:48:11;101074.75;;;8.68;49.75
18819;BME280;9537;45.594;9.294;2023-02-05T02:49:17;101077.38;;;8.68;49.38
18819;BME280;9537;45.594;9.294;2023-02-05T02:50:23;101069.59;;;8.66;49.68
18819;BME280;9537;45.594;9.294;2023-02-05T02:51:27;101069.00;;;8.63;49.65
18819;BME280;9537;45.594;9.294;2023-02-05T02:52:32;101070.09;;;8.60;50.42
18819;BME280;9537;45.594;9.294;2023-02-05T02:53:38;101074.53;;;8.60;49.89
18819;BME280;9537;45.594;9.294;2023-02-05T02:54:43;101074.78;;;8.56;50.58
18819;BME280;9537;45.594;9.294;2023-02-05T02:55:47;101073.09;;;8.55;49.62
18819;BME280;9537;45.594;9.294;2023-02-05T02:56:51;101078.03;;;8.49;49.57
18819;BME280;9537;45.594;9.294;2023-02-05T02:57:54;101077.69;;;8.42;49.43
18819;BME280;9537;45.594;9.294;2023-02-05T02:59:02;101074.81;;;8.34;49.64
18819;BME280;9537;45.594;9.294;2023-02-05T03:00:08;101081.06;;;8.22;49.91
18819;BME280;9537;45.594;9.294;2023-02-05T03:01:14;101084.06;;;8.17;50.16
18819;BME280;9537;45.594;9.294;2023-02-05T03:02:18;101077.59;;;8.21;50.18
18819;BME280;9537;45.594;9.294;2023-02-05T03:03:23;101079.03;;;8.14;50.08
18819;BME280;9537;45.594;9.294;2023-02-05T03:04:27;101076.50;;;8.12;50.63
18819;BME280;9537;45.594;9.294;2023-02-05T03:05:32;101076.66;;;8.11;49.96
18819;BME280;9537;45.594;9.294;2023-02-05T03:06:35;101084.66;;;8.09;50.36
18819;BME280;9537;45.594;9.294;2023-02-05T03:07:40;101081.44;;;8.06;50.27
18819;BME280;9537;45.594;9.294;2023-02-05T03:08:48;101083.13;;;8.07;50.69
18819;BME280;9537;45.594;9.294;2023-02-05T03:09:54;101092.22;;;8.03;51.40
18819;BME280;9537;45.594;9.294;2023-02-05T03:11:00;101088.75;;;8.02;51.13
18819;BME280;9537;45.594;9.294;2023-02-05T03:12:03;101089.81;;;8.00;51.25
18819;BME280;9537;45.594;9.294;2023-02-05T03:13:04;101083.25;;;7.94;51.31
18819;BME280;9537;45.594;9.294;2023-02-05T03:14:08;101086.59;;;7.96;51.01
18819;BME280;9537;45.594;9.294;2023-02-05T03:15:09;101084.06;;;7.95;51.39
18819;BME280;9537;45.594;9.294;2023-02-05T03:16:13;101092.09;;;7.93;51.39
18819;BME280;9537;45.594;9.294;2023-02-05T03:17:15;101086.94;;;7.92;51.17
18819;BME280;9537;45.594;9.294;2023-02-05T03:18:19;101085.78;;;7.84;51.83
18819;BME280;9537;45.594;9.294;2023-02-05T03:19:20;101091.16;;;7.83;52.12
18819;BME280;9537;45.594;9.294;2023-02-05T03:20:25;101091.88;;;7.85;51.80
18819;BME280;9537;45.594;9.294;2023-02-05T03:21:30;101094.75;;;7.82;51.78
18819;BME280;9537;45.594;9.294;2023-02-05T03:22:34;101089.81;;;7.77;51.70
18819;BME280;9537;45.594;9.294;2023-02-05T03:23:35;101091.38;;;7.80;51.62
18819;BME280;9537;45.594;9.294;2023-02-05T03:24:38;101092.34;;;7.79;51.11
18819;BME280;9537;45.594;9.294;2023-02-05T03:25:39;101088.03;;;7.78;51.79
18819;BME280;9537;45.594;9.294;2023-02-05T03:26:41;101089.09;;;7.75;51.28
18819;BME280;9537;45.594;9.294;2023-02-05T03:27:42;101092.94;;;7.71;51.58
18819;BME280;9537;45.594;9.294;2023-02-05T03:28:44;101090.78;;;7.65;52.22
18819;BME280;9537;45.594;9.294;2023-02-05T03:29:48;101086.69;;;7.61;51.91
18819;BME280;9537;45.594;9.294;2023-02-05T03:30:57;101086.00;;;7.59;51.97
18819;BME280;9537;45.594;9.294;2023-02-05T03:32:08;101085.88;;;7.60;51.48
18819;BME280;9537;45.594;9.294;2023-02-05T03:33:29;101087.41;;;7.52;51.64
18819;BME280;9537;45.594;9.294;2023-02-05T03:34:40;101086.22;;;7.44;51.78
18819;BME280;9537;45.594;9.294;2023-02-05T03:35:54;101083.59;;;7.44;52.17
18819;BME280;9537;45.594;9.294;2023-02-05T03:37:05;101093.63;;;7.39;52.22
18819;BME280;9537;45.594;9.294;2023-02-05T03:38:24;101086.91;;;7.35;51.80
18819;BME280;9537;45.594;9.294;2023-02-05T03:39:34;101078.31;;;7.33;52.67
18819;BME280;9537;45.594;9.294;2023-02-05T03:40:45;101078.66;;;7.29;52.05
18819;BME280;9537;45.594;9.294;2023-02-05T03:41:53;101074.38;;;7.28;52.40
18819;BME280;9537;45.594;9.294;2023-02-05T03:43:06;101080.56;;;7.27;53.08
18819;BME280;9537;45.594;9.294;2023-02-05T03:44:17;101082.13;;;7.29;52.55
18819;BME280;9537;45.594;9.294;2023-02-05T03:45:32;101081.53;;;7.26;52.56
18819;BME280;9537;45.594;9.294;2023-02-05T03:46:43;101080.47;;;7.28;51.57
18819;BME280;9537;45.594;9.294;2023-02-05T03:47:58;101085.13;;;7.25;51.77
18819;BME280;9537;45.594;9.294;2023-02-05T03:49:06;101087.03;;;7.22;52.71
18819;BME280;9537;45.594;9.294;2023-02-05T03:50:20;101085.59;;;7.18;52.00
18819;BME280;9537;45.594;9.294;2023-02-05T03:51:29;101093.81;;;7.14;52.38
18819;BME280;9537;45.594;9.294;2023-02-05T03:52:37;101086.63;;;7.05;52.45
18819;BME280;9537;45.594;9.294;2023-02-05T03:53:46;101093.28;;;6.97;52.57
18819;BME280;9537;45.594;9.294;2023-02-05T03:55:01;101088.25;;;6.94;53.19
18819;BME280;9537;45.594;9.294;2023-02-05T03:56:06;101088.47;;;6.91;53.03
18819;BME280;9537;45.594;9.294;2023-02-05T03:57:15;101089.53;;;6.89;53.67
18819;BME280;9537;45.594;9.294;2023-02-05T03:58:22;101093.34;;;6.85;53.40
18819;BME280;9537;45.594;9.294;2023-02-05T03:59:27;101095.16;;;6.84;53.56
18819;BME280;9537;45.594;9.294;2023-02-05T04:00:31;101091.41;;;6.75;53.83
18819;BME280;9537;45.594;9.294;2023-02-05T04:01:34;101087.22;;;6.73;54.08
18819;BME280;9537;45.594;9.294;2023-02-05T04:02:36;101090.31;;;6.67;54.27
18819;BME280;9537;45.594;9.294;2023-02-05T04:03:39;101088.50;;;6.67;54.05
18819;BME280;9537;45.594;9.294;2023-02-05T04:04:40;101084.31;;;6.65;54.24
18819;BME280;9537;45.594;9.294;2023-02-05T04:05:42;101093.34;;;6.61;53.91
18819;BME280;9537;45.594;9.294;2023-02-05T04:06:45;101085.22;;;6.52;54.82
18819;BME280;9537;45.594;9.294;2023-02-05T04:07:47;101082.69;;;6.51;54.69
18819;BME280;9537;45.594;9.294;2023-02-05T04:08:48;101090.66;;;6.49;54.68
18819;BME280;9537;45.594;9.294;2023-02-05T04:09:51;101091.34;;;6.40;55.15
18819;BME280;9537;45.594;9.294;2023-02-05T04:10:52;101092.84;;;6.31;55.08
18819;BME280;9537;45.594;9.294;2023-02-05T04:11:54;101090.78;;;6.24;55.56
18819;BME280;9537;45.594;9.294;2023-02-05T04:12:55;101090.06;;;6.22;55.48
18819;BME280;9537;45.594;9.294;2023-02-05T04:13:57;101089.22;;;6.21;54.85
18819;BME280;9537;45.594;9.294;2023-02-05T04:14:58;101090.28;;;6.19;55.51
18819;BME280;9537;45.594;9.294;2023-02-05T04:16:02;101087.66;;;6.19;55.70
18819;BME280;9537;45.594;9.294;2023-02-05T04:17:03;101083.56;;;6.15;56.10
18819;BME280;9537;45.594;9.294;2023-02-05T04:18:07;101101.38;;;6.22;55.83
18819;BME280;9537;45.594;9.294;2023-02-05T04:19:08;101096.75;;;6.26;55.70
18819;BME280;9537;45.594;9.294;2023-02-05T04:20:10;101092.22;;;6.28;55.24
18819;BME280;9537;45.594;9.294;2023-02-05T04:21:11;101096.53;;;6.29;55.44
18819;BME280;9537;45.594;9.294;2023-02-05T04:22:14;101095.91;;;6.25;55.61
18819;BME280;9537;45.594;9.294;2023-02-05T04:23:15;101095.09;;;6.25;54.92
18819;BME280;9537;45.594;9.294;2023-02-05T04:24:17;101100.53;;;6.22;55.26
18819;BME280;9537;45.594;9.294;2023-02-05T04:25:18;101095.53;;;6.19;55.65
18819;BME280;9537;45.594;9.294;2023-02-05T04:26:20;101096.78;;;6.13;55.46
18819;BME280;9537;45.594;9.294;2023-02-05T04:27:22;101089.16;;;6.10;55.39
18819;BME280;9537;45.594;9.294;2023-02-05T04:28:24;101089.03;;;6.12;55.40
18819;BME280;9537;45.594;9.294;2023-02-05T04:29:25;101088.19;;;6.11;55.55
18819;BME280;9537;45.594;9.294;2023-02-05T04:30:27;101091.84;;;6.08;55.83
18819;BME280;9537;45.594;9.294;2023-02-05T04:31:29;101094.38;;;6.10;55.80
18819;BME280;9537;45.594;9.294;2023-02-05T04:32:31;101094.69;;;6.05;55.51
18819;BME280;9537;45.594;9.294;2023-02-05T04:33:33;101097.34;;;5.93;55.67
18819;BME280;9537;45.594;9.294;2023-02-05T04:34:35;101101.72;;;5.92;55.66
18819;BME280;9537;45.594;9.294;2023-02-05T04:35:36;101104.47;;;5.91;56.15
18819;BME280;9537;45.594;9.294;2023-02-05T04:36:38;101098.25;;;5.92;56.00
18819;BME280;9537;45.594;9.294;2023-02-05T04:37:40;101092.19;;;5.91;55.84
18819;BME280;9537;45.594;9.294;2023-02-05T04:38:41;101087.78;;;5.92;56.23
18819;BME280;9537;45.594;9.294;2023-02-05T04:39:43;101089.56;;;5.91;55.90
18819;BME280;9537;45.594;9.294;2023-02-05T04:40:44;101095.13;;;5.86;55.57
18819;BME280;9537;45.594;9.294;2023-02-05T04:41:46;101089.69;;;5.90;56.05
18819;BME280;9537;45.594;9.294;2023-02-05T04:42:47;101097.44;;;5.91;56.05
18819;BME280;9537;45.594;9.294;2023-02-05T04:43:49;101092.63;;;5.85;55.82
18819;BME280;9537;45.594;9.294;2023-02-05T04:44:50;101097.13;;;5.83;55.95
18819;BME280;9537;45.594;9.294;2023-02-05T04:45:54;101096.91;;;5.86;56.34
18819;BME280;9537;45.594;9.294;2023-02-05T04:46:57;101093.78;;;5.81;56.19
18819;BME280;9537;45.594;9.294;2023-02-05T04:47:59;101088.53;;;5.81;56.00
18819;BME280;9537;45.594;9.294;2023-02-05T04:49:01;101092.44;;;5.75;56.54
18819;BME280;9537;45.594;9.294;2023-02-05T04:50:03;101093.06;;;5.79;56.26
18819;BME280;9537;45.594;9.294;2023-02-05T04:51:06;101085.69;;;5.71;56.11
18819;BME280;9537;45.594;9.294;2023-02-05T04:52:07;101088.31;;;5.71;56.45
18819;BME280;9537;45.594;9.294;2023-02-05T04:53:09;101083.50;;;5.65;56.75
18819;BME280;9537;45.594;9.294;2023-02-05T04:54:10;101084.69;;;5.61;56.99
18819;BME280;9537;45.594;9.294;2023-02-05T04:55:12;101089.81;;;5.62;56.81
18819;BME280;9537;45.594;9.294;2023-02-05T04:56:14;101095.34;;;5.58;56.78
18819;BME280;9537;45.594;9.294;2023-02-05T04:57:17;101090.53;;;5.52;56.74
18819;BME280;9537;45.594;9.294;2023-02-05T04:58:18;101092.00;;;5.43;57.49
18819;BME280;9537;45.594;9.294;2023-02-05T04:59:21;101091.81;;;5.33;57.46
18819;BME280;9537;45.594;9.294;2023-02-05T05:00:22;101090.31;;;5.29;57.63
18819;BME280;9537;45.594;9.294;2023-02-05T05:01:24;101093.25;;;5.25;57.67
18819;BME280;9537;45.594;9.294;2023-02-05T05:02:27;101089.97;;;5.08;58.33
18819;BME280;9537;45.594;9.294;2023-02-05T05:03:29;101087.56;;;5.05;58.67
18819;BME280;9537;45.594;9.294;2023-02-05T05:04:31;101093.22;;;5.12;58.64
18819;BME280;9537;45.594;9.294;2023-02-05T05:05:33;101090.53;;;5.13;58.47
18819;BME280;9537;45.594;9.294;2023-02-05T05:06:35;101095.13;;;5.10;58.68
18819;BME280;9537;45.594;9.294;2023-02-05T05:07:37;101087.16;;;5.11;58.65
18819;BME280;9537;45.594;9.294;2023-02-05T05:08:38;101090.19;;;5.05;58.79
18819;BME280;9537;45.594;9.294;2023-02-05T05:09:42;101093.00;;;5.02;58.93
18819;BME280;9537;45.594;9.294;2023-02-05T05:10:43;101097.84;;;5.08;59.06
18819;BME280;9537;45.594;9.294;2023-02-05T05:11:45;101097.00;;;5.08;58.91
18819;BME280;9537;45.594;9.294;2023-02-05T05:12:46;101096.25;;;5.06;58.72
18819;BME280;9537;45.594;9.294;2023-02-05T05:13:48;101096.47;;;5.03;58.69
18819;BME280;9537;45.594;9.294;2023-02-05T05:14:51;101091.97;;;5.05;58.73
18819;BME280;9537;45.594;9.294;2023-02-05T05:15:53;101094.88;;;5.00;58.93
18819;BME280;9537;45.594;9.294;2023-02-05T05:16:54;101099.28;;;5.00;59.67
18819;BME280;9537;45.594;9.294;2023-02-05T05:17:58;101096.47;;;5.03;58.99
18819;BME280;9537;45.594;9.294;2023-02-05T05:18:59;101095.63;;;5.02;58.82
18819;BME280;9537;45.594;9.294;2023-02-05T05:20:02;101100.47;;;5.08;58.69
18819;BME280;9537;45.594;9.294;2023-02-05T05:21:03;101099.34;;;5.12;58.34
18819;BME280;9537;45.594;9.294;2023-02-05T05:22:06;101095.63;;;5.15;58.48
18819;BME280;9537;45.594;9.294;2023-02-05T05:23:07;101091.22;;;5.03;58.79
18819;BME280;9537;45.594;9.294;2023-02-05T05:24:09;101094.69;;;5.03;58.49
18819;BME280;9537;45.594;9.294;2023-02-05T05:25:10;101096.66;;;5.00;58.63
18819;BME280;9537;45.594;9.294;2023-02-05T05:26:12;101089.75;;;4.99;59.08
18819;BME280;9537;45.594;9.294;2023-02-05T05:27:13;101096.66;;;5.00;58.87
18819;BME280;9537;45.594;9.294;2023-02-05T05:28:16;101095.34;;;5.07;58.93
18819;BME280;9537;45.594;9.294;2023-02-05T05:29:17;101093.56;;;5.07;58.99
18819;BME280;9537;45.594;9.294;2023-02-05T05:30:19;101088.94;;;5.11;59.06
18819;BME280;9537;45.594;9.294;2023-02-05T05:31:21;101083.78;;;5.09;58.93
18819;BME280;9537;45.594;9.294;2023-02-05T05:32:23;101085.16;;;5.15;59.18
18819;BME280;9537;45.594;9.294;2023-02-05T05:33:26;101080.66;;;5.17;59.08
18819;BME280;9537;45.594;9.294;2023-02-05T05:34:29;101076.06;;;5.20;58.69
18819;BME280;9537;45.594;9.294;2023-02-05T05:35:30;101073.13;;;5.25;58.92
18819;BME280;9537;45.594;9.294;2023-02-05T05:36:31;101075.66;;;5.27;59.28
18819;BME280;9537;45.594;9.294;2023-02-05T05:37:32;101077.22;;;5.29;59.39
18819;BME280;9537;45.594;9.294;2023-02-05T05:38:34;101079.94;;;5.28;58.67
18819;BME280;9537;45.594;9.294;2023-02-05T05:39:36;101083.72;;;5.24;58.61
18819;BME280;9537;45.594;9.294;2023-02-05T05:40:55;101094.31;;;5.22;58.93
18819;BME280;9537;45.594;9.294;2023-02-05T05:42:14;101088.09;;;5.23;58.00
18819;BME280;9537;45.594;9.294;2023-02-05T05:43:34;101092.09;;;5.29;58.28
18819;BME280;9537;45.594;9.294;2023-02-05T05:44:52;101092.72;;;5.19;57.81